createdAt,value
2023-04-17T00:01:50.208Z,41.63
2023-04-17T00:05:16.995Z,39.65
2023-04-17T00:08:43.735Z,41.00
2023-04-17T00:12:08.985Z,43.50
2023-04-17T00:15:34.249Z,40.20
2023-04-17T00:18:59.490Z,40.85
2023-04-17T00:22:24.838Z,41.45
2023-04-17T00:25:50.151Z,41.90
2023-04-17T00:29:17.464Z,41.00
2023-04-17T00:32:43.268Z,40.72
2023-04-17T00:36:10.060Z,38.75
2023-04-17T00:39:38.095Z,38.88
2023-04-17T00:43:04.074Z,41.83
2023-04-17T00:46:30.661Z,38.53
2023-04-17T00:49:56.167Z,40.78
2023-04-17T00:53:26.461Z,40.40
2023-04-17T00:56:54.646Z,34.22
2023-04-17T01:00:23.179Z,42.60
2023-04-17T01:03:49.548Z,41.50
2023-04-17T01:07:18.446Z,41.92
2023-04-17T01:10:43.890Z,56.63
2023-04-17T01:14:11.822Z,39.80
2023-04-17T01:17:37.058Z,39.85
2023-04-17T01:21:05.409Z,40.92
2023-04-17T01:24:41.227Z,40.42
2023-04-17T01:28:06.668Z,40.15
2023-04-17T01:31:35.122Z,44.33
2023-04-17T01:35:04.108Z,42.45
2023-04-17T01:38:32.087Z,41.22
2023-04-17T01:41:57.346Z,41.97
2023-04-17T01:45:22.634Z,40.28
2023-04-17T01:48:47.959Z,39.95
2023-04-17T01:52:16.104Z,44.28
2023-04-17T01:55:41.439Z,41.80
2023-04-17T01:59:09.691Z,41.00
2023-04-17T02:02:35.474Z,42.55
2023-04-17T02:06:00.990Z,41.97
2023-04-17T02:09:27.233Z,39.30
2023-04-17T02:12:58.579Z,39.05
2023-04-17T02:19:49.796Z,40.72
2023-04-17T02:23:15.052Z,41.75
2023-04-17T02:26:49.848Z,40.13
2023-04-17T02:30:17.990Z,41.45
2023-04-17T02:33:43.252Z,41.13
2023-04-17T02:37:17.658Z,41.30
2023-04-17T02:40:42.929Z,40.42
2023-04-17T02:44:08.193Z,43.20
2023-04-17T02:47:33.748Z,38.63
2023-04-17T02:50:59.104Z,39.55
2023-04-17T02:54:30.107Z,39.65
2023-04-17T02:57:55.540Z,40.22
2023-04-17T03:01:22.780Z,34.53
2023-04-17T03:04:49.435Z,38.90
2023-04-17T03:08:18.424Z,39.75
2023-04-17T03:11:43.674Z,41.03
2023-04-17T03:15:12.657Z,40.53
2023-04-17T03:18:41.507Z,40.08
2023-04-17T03:22:07.643Z,40.38
2023-04-17T03:25:32.972Z,39.63
2023-04-17T03:28:58.279Z,41.60
2023-04-17T03:32:23.601Z,41.63
2023-04-17T03:35:48.931Z,41.08
2023-04-17T03:39:14.662Z,39.80
2023-04-17T03:42:40.008Z,41.42
2023-04-17T03:46:05.702Z,39.42
2023-04-17T03:49:30.971Z,38.92
2023-04-17T03:53:04.296Z,39.35
2023-04-17T03:56:29.613Z,39.72
2023-04-17T03:59:54.901Z,38.55
2023-04-17T04:03:20.403Z,37.13
2023-04-17T04:06:50.672Z,37.25
2023-04-17T04:10:15.953Z,39.88
2023-04-17T04:13:41.311Z,39.38
2023-04-17T04:17:07.135Z,39.08
2023-04-17T04:20:33.032Z,39.85
2023-04-17T04:23:58.262Z,39.97
2023-04-17T04:27:27.892Z,41.35
2023-04-17T04:30:53.691Z,39.22
2023-04-17T04:34:19.207Z,43.45
2023-04-17T04:37:46.660Z,41.17
2023-04-17T04:41:16.261Z,40.70
2023-04-17T04:44:44.365Z,40.92
2023-04-17T04:48:09.683Z,43.75
2023-04-17T04:51:35.353Z,40.65
2023-04-17T04:55:03.986Z,41.30
2023-04-17T04:58:31.974Z,40.90
2023-04-17T05:01:57.324Z,41.10
2023-04-17T05:05:23.079Z,56.05
2023-04-17T05:08:48.464Z,43.33
2023-04-17T05:12:14.193Z,39.58
2023-04-17T05:15:45.584Z,44.15
2023-04-17T05:19:11.123Z,41.78
2023-04-17T05:22:36.680Z,43.15
2023-04-17T05:26:03.506Z,43.25
2023-04-17T05:29:28.812Z,50.45
2023-04-17T05:32:55.110Z,45.67
2023-04-17T05:36:23.615Z,45.15
2023-04-17T05:39:49.883Z,43.63
2023-04-17T05:43:15.131Z,45.97
2023-04-17T05:46:49.435Z,45.35
2023-04-17T05:50:14.724Z,46.20
2023-04-17T05:53:40.100Z,44.35
2023-04-17T05:57:05.400Z,48.10
2023-04-17T06:00:31.277Z,47.88
2023-04-17T06:03:56.986Z,52.83
2023-04-17T06:07:23.644Z,49.90
2023-04-17T06:10:50.361Z,51.85
2023-04-17T06:14:15.654Z,53.15
2023-04-17T06:17:51.620Z,49.95
2023-04-17T06:21:17.023Z,51.03
2023-04-17T06:24:47.588Z,54.85
2023-04-17T06:28:13.146Z,52.83
2023-04-17T06:31:38.614Z,47.20
2023-04-17T06:35:06.483Z,50.15
2023-04-17T06:38:31.789Z,54.58
2023-04-17T06:42:03.317Z,50.70
2023-04-17T06:45:28.658Z,52.00
2023-04-17T06:49:02.239Z,57.88
2023-04-17T06:52:27.565Z,52.42
2023-04-17T06:55:54.326Z,55.17
2023-04-17T06:59:19.653Z,49.22
2023-04-17T07:02:45.013Z,53.08
2023-04-17T07:06:11.040Z,53.80
2023-04-17T07:09:36.456Z,49.20
2023-04-17T07:13:04.561Z,51.67
2023-04-17T07:16:33.061Z,53.15
2023-04-17T07:20:00.680Z,55.70
2023-04-17T07:23:26.798Z,54.00
2023-04-17T07:26:52.223Z,50.97
2023-04-17T07:30:17.508Z,46.45
2023-04-17T07:33:42.876Z,48.92
2023-04-17T07:37:09.381Z,45.00
2023-04-17T07:40:36.188Z,47.83
2023-04-17T07:44:03.552Z,47.28
2023-04-17T07:47:29.012Z,50.45
2023-04-17T07:50:54.336Z,55.63
2023-04-17T07:54:22.962Z,50.08
2023-04-17T07:57:50.452Z,48.15
2023-04-17T08:01:15.969Z,47.67
2023-04-17T08:04:42.084Z,47.72
2023-04-17T08:08:07.893Z,45.25
2023-04-17T08:11:37.823Z,45.17
2023-04-17T08:15:11.793Z,44.58
2023-04-17T08:18:37.941Z,43.42
2023-04-17T08:22:06.709Z,43.80
2023-04-17T08:25:32.309Z,46.50
2023-04-17T08:29:01.771Z,45.05
2023-04-17T08:32:27.273Z,43.65
2023-04-17T08:35:56.791Z,43.58
2023-04-17T08:39:25.083Z,45.33
2023-04-17T08:42:54.389Z,45.72
2023-04-17T08:46:24.146Z,46.15
2023-04-17T08:49:50.909Z,43.47
2023-04-17T08:53:17.215Z,44.90
2023-04-17T08:56:48.692Z,62.10
2023-04-17T09:00:14.363Z,44.75
2023-04-17T09:03:52.569Z,44.88
2023-04-17T09:07:18.564Z,43.63
2023-04-17T09:10:56.289Z,42.88
2023-04-17T09:17:56.172Z,44.92
2023-04-17T09:21:27.825Z,43.92
2023-04-17T09:24:55.224Z,43.90
2023-04-17T09:28:22.903Z,48.05
2023-04-17T09:31:50.611Z,46.28
2023-04-17T09:35:31.440Z,46.92
2023-04-17T09:38:57.271Z,46.42
2023-04-17T09:42:29.869Z,46.55
2023-04-17T09:45:57.982Z,43.42
2023-04-17T09:49:35.569Z,42.95
2023-04-17T09:53:11.620Z,42.90
2023-04-17T09:56:38.128Z,42.40
2023-04-17T10:00:06.806Z,45.33
2023-04-17T10:03:36.649Z,42.63
2023-04-17T10:07:03.222Z,45.03
2023-04-17T10:10:34.105Z,45.35
2023-04-17T10:14:10.813Z,41.33
2023-04-17T10:17:39.762Z,44.63
2023-04-17T10:21:22.205Z,45.67
2023-04-17T10:25:06.114Z,41.83
2023-04-17T10:28:50.226Z,41.40
2023-04-17T10:32:16.479Z,39.85
2023-04-17T10:35:41.962Z,41.50
2023-04-17T10:39:14.338Z,42.05
2023-04-17T10:43:02.292Z,42.72
2023-04-17T10:46:47.992Z,41.45
2023-04-17T10:50:15.084Z,42.60
2023-04-17T10:53:44.497Z,42.35
2023-04-17T10:57:11.979Z,42.25
2023-04-17T11:00:52.488Z,41.58
2023-04-17T11:04:31.689Z,41.28
2023-04-17T11:07:59.688Z,45.97
2023-04-17T11:11:40.404Z,42.88
2023-04-17T11:15:10.643Z,42.92
2023-04-17T11:18:44.745Z,35.40
2023-04-17T11:22:13.588Z,42.58
2023-04-17T11:25:40.379Z,42.53
2023-04-17T11:29:15.313Z,41.88
2023-04-17T11:32:43.922Z,43.45
2023-04-17T11:36:10.904Z,44.35
2023-04-17T11:39:37.988Z,47.05
2023-04-17T11:43:06.160Z,45.95
2023-04-17T11:46:32.318Z,44.90
2023-04-17T11:49:57.641Z,45.47
2023-04-17T11:53:23.009Z,42.28
2023-04-17T11:57:12.680Z,39.97
2023-04-17T12:00:39.393Z,46.20
2023-04-17T12:04:35.261Z,46.90
2023-04-17T12:08:05.587Z,43.60
2023-04-17T12:11:36.980Z,44.42
2023-04-17T12:15:03.638Z,47.25
2023-04-17T12:18:32.299Z,46.03
2023-04-17T12:21:57.838Z,46.22
2023-04-17T12:25:23.129Z,45.67
2023-04-17T12:28:51.397Z,48.33
2023-04-17T12:32:16.839Z,47.67
2023-04-17T12:35:42.100Z,49.33
2023-04-17T12:39:08.183Z,48.17
2023-04-17T12:42:39.459Z,45.45
2023-04-17T12:46:16.233Z,48.00
2023-04-17T12:49:41.558Z,45.90
2023-04-17T12:53:09.914Z,51.15
2023-04-17T12:56:38.506Z,55.78
2023-04-17T13:00:06.714Z,51.80
2023-04-17T13:03:32.111Z,47.10
2023-04-17T13:06:58.069Z,51.53
2023-04-17T13:10:23.367Z,41.80
2023-04-17T13:13:56.952Z,49.97
2023-04-17T13:17:22.331Z,50.58
2023-04-17T13:20:47.629Z,50.25
2023-04-17T13:24:15.284Z,47.85
2023-04-17T13:27:40.665Z,48.72
2023-04-17T13:31:06.485Z,50.72
2023-04-17T13:34:31.928Z,49.75
2023-04-17T13:38:03.433Z,51.30
2023-04-17T13:41:28.904Z,54.65
2023-04-17T13:44:56.931Z,57.13
2023-04-17T13:48:22.226Z,47.92
2023-04-17T13:51:50.206Z,49.88
2023-04-17T13:55:17.489Z,53.38
2023-04-17T13:58:52.506Z,49.33
2023-04-17T14:02:18.371Z,59.00
2023-04-17T14:05:45.164Z,48.58
2023-04-17T14:09:19.412Z,49.85
2023-04-17T14:12:44.828Z,49.67
2023-04-17T14:16:10.418Z,48.90
2023-04-17T14:19:37.884Z,46.40
2023-04-17T14:23:06.001Z,49.00
2023-04-17T14:26:31.395Z,44.00
2023-04-17T14:29:57.237Z,48.17
2023-04-17T14:33:24.106Z,47.50
2023-04-17T14:36:49.554Z,48.38
2023-04-17T14:40:14.990Z,46.50
2023-04-17T14:43:40.274Z,46.72
2023-04-17T14:47:05.630Z,46.13
2023-04-17T14:50:31.068Z,43.88
2023-04-17T14:54:05.285Z,47.97
2023-04-17T14:57:33.781Z,43.22
2023-04-17T15:00:59.189Z,45.70
2023-04-17T15:04:24.575Z,45.78
2023-04-17T15:07:50.022Z,37.20
2023-04-17T15:11:16.116Z,44.35
2023-04-17T15:14:41.444Z,46.38
2023-04-17T15:18:09.838Z,44.55
2023-04-17T15:21:35.165Z,44.33
2023-04-17T15:25:00.529Z,46.08
2023-04-17T15:28:25.839Z,45.70
2023-04-17T15:31:52.861Z,47.60
2023-04-17T15:35:18.323Z,43.88
2023-04-17T15:38:44.297Z,46.38
2023-04-17T15:42:10.164Z,48.70
2023-04-17T15:45:36.041Z,41.60
2023-04-17T15:49:08.749Z,46.22
2023-04-17T15:52:37.073Z,48.78
2023-04-17T15:56:02.445Z,37.88
2023-04-17T15:59:30.320Z,49.13
2023-04-17T16:02:55.808Z,44.08
2023-04-17T16:06:21.676Z,43.88
2023-04-17T16:09:48.189Z,46.50
2023-04-17T16:13:13.592Z,42.33
2023-04-17T16:16:38.937Z,42.35
2023-04-17T16:20:07.010Z,41.75
2023-04-17T16:23:39.079Z,41.90
2023-04-17T16:27:06.470Z,38.38
2023-04-17T16:30:31.733Z,41.08
2023-04-17T16:33:56.999Z,39.47
2023-04-17T16:37:25.027Z,31.58
2023-04-17T16:40:50.298Z,40.65
2023-04-17T16:44:15.583Z,40.85
2023-04-17T16:47:43.494Z,38.63
2023-04-17T16:51:09.719Z,37.92
2023-04-17T16:54:34.996Z,36.63
2023-04-17T16:58:01.064Z,39.15
2023-04-17T17:01:26.412Z,37.17
2023-04-17T17:04:52.215Z,38.67
2023-04-17T17:08:20.083Z,39.97
2023-04-17T17:11:47.679Z,39.20
2023-04-17T17:15:15.578Z,39.45
2023-04-17T17:18:40.936Z,44.85
2023-04-17T17:22:06.225Z,41.00
2023-04-17T17:25:31.516Z,41.47
2023-04-17T17:28:57.842Z,39.70
2023-04-17T17:32:23.305Z,39.47
2023-04-17T17:35:57.553Z,42.05
2023-04-17T17:39:22.979Z,40.42
2023-04-17T17:42:48.558Z,40.88
2023-04-17T17:46:20.206Z,39.33
2023-04-17T17:49:45.503Z,40.80
2023-04-17T17:53:13.724Z,41.17
2023-04-17T17:56:39.005Z,44.85
2023-04-17T18:00:08.003Z,41.03
2023-04-17T18:03:34.525Z,42.17
2023-04-17T18:07:00.029Z,42.67
2023-04-17T18:10:25.512Z,44.70
2023-04-17T18:13:51.073Z,42.20
2023-04-17T18:17:16.374Z,44.35
2023-04-17T18:20:44.688Z,46.80
2023-04-17T18:24:09.980Z,40.13
2023-04-17T18:27:36.530Z,42.22
2023-04-17T18:31:05.720Z,51.55
2023-04-17T18:34:33.317Z,43.45
2023-04-17T18:37:58.542Z,42.90
2023-04-17T18:41:25.750Z,45.15
2023-04-17T18:44:51.277Z,43.58
2023-04-17T18:48:16.657Z,42.17
2023-04-17T18:51:47.876Z,44.53
2023-04-17T18:55:17.701Z,41.10
2023-04-17T18:58:43.160Z,45.25
2023-04-17T19:02:08.551Z,43.25
2023-04-17T19:05:33.919Z,43.63
2023-04-17T19:08:59.271Z,44.60
2023-04-17T19:12:25.350Z,41.17
2023-04-17T19:15:50.649Z,44.33
2023-04-17T19:19:16.082Z,42.67
2023-04-17T19:22:44.337Z,43.33
2023-04-17T19:26:15.234Z,44.22
2023-04-17T19:29:40.508Z,45.10
2023-04-17T19:33:06.008Z,44.47
2023-04-17T19:36:31.339Z,45.40
2023-04-17T19:39:56.905Z,44.50
